Aeroporto :







RITROVATECI SU...

 
LOGIN :

Iscrizione | Disclaimer

   EN    FR    IT 

 









Sommario :    VFR   VFR Marginale   IFR   IFR Intensivo   IFR Molto Intensivo
Visibilità : 
Base nubi : 
>= 8 km
>= 3000ft
5 / 8 km
1000 / 3000 ft
1500m / 5 km
500 / 1000 ft
800 / 1500m
200 / 500 ft
< 800m
< 200 ft
Simboli :   Temporali  Nebbia  Neve Forte  Precipitazioni Forti  Vento > 20 kt






- Altitudine del aeroporto : 112 ft
- Codice IATA : UAK


BGBW - Narsarsuak

ULTIMO METAR :
  • 151050Z 26003KT 9999 FEW006 SCT008 BKN015 08/06 Q0996

METARs OBSOLETI :
  • 150950Z 05003KT 9999 FEW006 SCT008 BKN011 08/06 Q0996

TAF TAF BGBW
Valido dal 15 a 10 ore il 15 a 18 ore UTC


151015Z 1510/1518 VRB02KT 9999 SCT008 BKN010
PROB40 1510/1512 BKN008
BECMG 1512/1514 05008KT FEW008 SCT020
TEMPO 1514/1518 24008KT 5000 -SHRA BKN014 SCT025TCU
FIR BGGL / America del Nord



MetMap, La meteo Aeronautica in un colpo d'occhio ! - Copyright ORBIFLY Dicembre 2007 - Disclaimer

ORBIFLY MET'MAP TEAM :

Programmazione e sviluppo : Alexandra Zaïnal
Concezione : Baudouin d'Aumeries
Aiuto per la programmazione : Marc-Olivier Méhu
Supporto tecnico e logistico : Manuel Goepfert
Aiuto per la traduzione : Arnaldo La Scala

Contatto : metmap@orbifly.com




FONTI E CREDITI :

   NOAA